Time;durP1;ratioP1;P1;durP2;ratioP2;P2;SDS_P1;SDS_P2;PMS_P1;PMS_P2;Temp;Humidity;BMP_temperature;BMP_pressure;BME280_temperature;BME280_humidity;BME280_pressure;Samples;Min_cycle;Max_cycle;Signal;HPM_P1;HPM_P2
2022/11/07 00:00:09;;;;;;;78.30;7.82;;;;;;;;;;5012497;28;20034;-64
2022/11/07 00:02:36;;;;;;;56.22;7.18;;;;;;;;;;5011382;28;20056;-65
2022/11/07 00:05:03;;;;;;;52.22;7.22;;;;;;;;;;5011647;28;20083;-64
2022/11/07 00:07:30;;;;;;;60.92;7.97;;;;;;;;;;5011533;28;20540;-64
2022/11/07 00:09:57;;;;;;;63.15;8.07;;;;;;;;;;5012068;28;20061;-64
2022/11/07 00:12:23;;;;;;;52.70;7.40;;;;;;;;;;5011342;28;20042;-64
2022/11/07 00:14:50;;;;;;;56.72;6.80;;;;;;;;;;5011705;28;20033;-64
2022/11/07 00:17:17;;;;;;;54.80;7.68;;;;;;;;;;5012026;28;20038;-64
2022/11/07 00:19:45;;;;;;;58.35;7.53;;;;;;;;;;5011492;28;20042;-64
2022/11/07 00:22:12;;;;;;;54.35;7.45;;;;;;;;;;5010594;28;20029;-65
2022/11/07 00:24:39;;;;;;;53.00;7.28;;;;;;;;;;5011217;28;20439;-64
2022/11/07 00:27:05;;;;;;;49.70;7.20;;;;;;;;;;5011669;28;20087;-64
2022/11/07 00:29:32;;;;;;;47.00;6.70;;;;;;;;;;5010766;28;20435;-64
2022/11/07 00:31:59;;;;;;;57.88;7.35;;;;;;;;;;5011073;28;20049;-64
2022/11/07 00:34:26;;;;;;;51.95;7.60;;;;;;;;;;5010539;28;20038;-63
2022/11/07 00:36:53;;;;;;;58.17;7.40;;;;;;;;;;5010879;28;20034;-64
2022/11/07 00:39:20;;;;;;;61.20;7.38;;;;;;;;;;5010967;28;20108;-65
2022/11/07 00:41:48;;;;;;;47.65;7.50;;;;;;;;;;5009278;28;20025;-63
2022/11/07 00:44:15;;;;;;;49.03;7.60;;;;;;;;;;5009096;28;20025;-64
2022/11/07 00:46:42;;;;;;;52.70;7.95;;;;;;;;;;5005428;28;20037;-61
2022/11/07 00:49:09;;;;;;;46.65;7.85;;;;;;;;;;5008349;28;20111;-61
2022/11/07 00:51:36;;;;;;;52.88;7.97;;;;;;;;;;5009516;28;20836;-60
2022/11/07 00:54:04;;;;;;;40.97;7.28;;;;;;;;;;5008833;28;20117;-60
2022/11/07 00:56:31;;;;;;;56.63;7.72;;;;;;;;;;5009508;28;20037;-61
2022/11/07 00:58:59;;;;;;;40.88;7.10;;;;;;;;;;5009751;28;20033;-62
2022/11/07 01:01:27;;;;;;;44.03;8.10;;;;;;;;;;4992745;28;20134;-62
2022/11/07 01:06:41;;;;;;;43.83;7.47;;;;;;;;;;5008971;28;20052;-62
2022/11/07 01:09:10;;;;;;;50.22;8.00;;;;;;;;;;5010380;28;20030;-63
2022/11/07 01:11:37;;;;;;;38.90;6.90;;;;;;;;;;5011290;28;20030;-61
2022/11/07 01:14:04;;;;;;;42.20;7.10;;;;;;;;;;5010384;28;20369;-62
2022/11/07 01:16:34;;;;;;;35.88;7.32;;;;;;;;;;5010191;28;20077;-61
2022/11/07 01:19:02;;;;;;;49.28;7.57;;;;;;;;;;5009993;28;20040;-62
2022/11/07 01:21:29;;;;;;;59.80;8.68;;;;;;;;;;5010174;28;20525;-62
2022/11/07 01:23:56;;;;;;;40.63;7.07;;;;;;;;;;5010032;28;20080;-60
2022/11/07 01:26:23;;;;;;;42.95;6.88;;;;;;;;;;5008699;28;20741;-62
2022/11/07 01:28:50;;;;;;;36.55;7.05;;;;;;;;;;5006769;28;20038;-62
2022/11/07 01:31:17;;;;;;;49.40;7.85;;;;;;;;;;5009599;28;20026;-61
2022/11/07 01:33:45;;;;;;;34.35;6.40;;;;;;;;;;5009992;28;20030;-62
2022/11/07 01:36:13;;;;;;;41.92;5.85;;;;;;;;;;5009870;28;20026;-63
2022/11/07 01:38:41;;;;;;;44.67;6.65;;;;;;;;;;5009039;28;20046;-63
2022/11/07 01:41:25;;;;;;;35.70;6.97;;;;;;;;;;5010543;28;20861;-62
2022/11/07 01:44:00;;;;;;;58.58;6.55;;;;;;;;;;5010860;28;20509;-59
2022/11/07 01:46:37;;;;;;;41.75;6.63;;;;;;;;;;5010974;28;20480;-58
2022/11/07 01:49:04;;;;;;;38.53;6.50;;;;;;;;;;5009155;28;20041;-57
2022/11/07 01:51:33;;;;;;;41.67;7.03;;;;;;;;;;5010506;28;20025;-62
2022/11/07 01:54:01;;;;;;;44.30;6.35;;;;;;;;;;5010740;28;20108;-62
2022/11/07 01:56:31;;;;;;;33.00;5.22;;;;;;;;;;5010538;28;20116;-63
2022/11/07 01:58:59;;;;;;;37.72;6.65;;;;;;;;;;5008569;28;20033;-68
2022/11/07 02:01:26;;;;;;;31.77;5.95;;;;;;;;;;5010623;28;20030;-63
2022/11/07 02:03:53;;;;;;;34.45;5.90;;;;;;;;;;5009949;28;20492;-61
2022/11/07 02:06:31;;;;;;;57.53;7.05;;;;;;;;;;5010493;28;20033;-60
2022/11/07 02:08:58;;;;;;;33.30;5.63;;;;;;;;;;5011082;28;20034;-61
2022/11/07 02:11:25;;;;;;;36.45;6.07;;;;;;;;;;5010830;28;20069;-62
2022/11/07 02:13:52;;;;;;;38.35;5.50;;;;;;;;;;5010889;28;20029;-61
2022/11/07 02:16:19;;;;;;;36.22;5.60;;;;;;;;;;4997316;28;20082;-62
2022/11/07 02:18:46;;;;;;;41.28;6.00;;;;;;;;;;5010991;28;20026;-61
2022/11/07 02:21:19;;;;;;;42.38;6.05;;;;;;;;;;5010781;28;20034;-61
2022/11/07 02:27:01;;;;;;;29.88;5.43;;;;;;;;;;5011001;28;20125;-61
2022/11/07 02:29:28;;;;;;;31.55;5.03;;;;;;;;;;5010802;28;20030;-62
2022/11/07 02:32:02;;;;;;;36.83;4.50;;;;;;;;;;5010957;28;20103;-61
2022/11/07 02:34:29;;;;;;;24.65;4.60;;;;;;;;;;5010869;28;20066;-62
2022/11/07 02:36:56;;;;;;;30.60;5.15;;;;;;;;;;5010666;28;20104;-61
2022/11/07 02:39:23;;;;;;;26.60;4.70;;;;;;;;;;5014083;28;20495;-61
2022/11/07 02:41:51;;;;;;;28.20;5.05;;;;;;;;;;5014594;28;20026;-62
2022/11/07 02:44:18;;;;;;;26.63;4.57;;;;;;;;;;4996608;28;20037;-61
2022/11/07 02:46:46;;;;;;;29.20;5.00;;;;;;;;;;5013973;28;20384;-61
2022/11/07 02:49:13;;;;;;;22.05;4.38;;;;;;;;;;5013548;28;20388;-61
2022/11/07 02:51:40;;;;;;;21.25;4.35;;;;;;;;;;5014033;28;20048;-61
2022/11/07 02:54:07;;;;;;;19.90;4.50;;;;;;;;;;5014160;28;20034;-61
2022/11/07 02:56:34;;;;;;;25.60;4.60;;;;;;;;;;5014221;28;20200;-62
2022/11/07 02:59:01;;;;;;;21.63;4.93;;;;;;;;;;5013597;28;20053;-61
2022/11/07 03:01:28;;;;;;;18.85;3.70;;;;;;;;;;5014241;28;20376;-62
2022/11/07 03:07:05;;;;;;;22.73;3.35;;;;;;;;;;5015691;28;20479;-61
2022/11/07 03:12:42;;;;;;;16.70;3.65;;;;;;;;;;5015730;28;20456;-62
2022/11/07 03:18:19;;;;;;;22.48;4.00;;;;;;;;;;5005885;28;20128;-61
2022/11/07 03:20:46;;;;;;;18.15;3.45;;;;;;;;;;5012996;28;20431;-61
2022/11/07 03:23:13;;;;;;;20.23;3.92;;;;;;;;;;5013631;28;20022;-58
2022/11/07 03:25:40;;;;;;;20.30;3.58;;;;;;;;;;5013120;28;20026;-58
2022/11/07 03:28:07;;;;;;;18.75;4.35;;;;;;;;;;5011482;28;20062;-58
2022/11/07 03:30:34;;;;;;;22.92;4.22;;;;;;;;;;4992419;28;20037;-60
2022/11/07 03:33:01;;;;;;;22.30;4.00;;;;;;;;;;5011862;28;20064;-60
2022/11/07 03:35:28;;;;;;;19.95;3.72;;;;;;;;;;5011697;28;20033;-59
2022/11/07 03:37:55;;;;;;;25.52;4.22;;;;;;;;;;5011325;28;20096;-60
2022/11/07 03:40:22;;;;;;;24.25;3.90;;;;;;;;;;4995177;28;20136;-61
2022/11/07 03:42:49;;;;;;;35.50;5.10;;;;;;;;;;5011224;28;20062;-60
2022/11/07 03:45:16;;;;;;;18.73;4.15;;;;;;;;;;5009191;28;20076;-61
2022/11/07 03:47:44;;;;;;;29.27;4.60;;;;;;;;;;5011451;28;20087;-60
2022/11/07 03:50:16;;;;;;;27.50;4.28;;;;;;;;;;5010933;28;20029;-60
2022/11/07 03:52:43;;;;;;;31.08;4.50;;;;;;;;;;4994429;28;20070;-61
2022/11/07 03:55:11;;;;;;;25.77;4.32;;;;;;;;;;5011945;28;20143;-60
2022/11/07 03:57:38;;;;;;;18.52;3.38;;;;;;;;;;5013190;28;20038;-60
2022/11/07 04:00:06;;;;;;;18.63;4.05;;;;;;;;;;5012863;28;20395;-59
2022/11/07 04:02:33;;;;;;;22.10;3.95;;;;;;;;;;5013007;28;20037;-64
2022/11/07 04:05:00;;;;;;;24.33;4.47;;;;;;;;;;5013066;28;20117;-61
2022/11/07 04:07:27;;;;;;;25.13;3.55;;;;;;;;;;5013100;28;20034;-60
2022/11/07 04:09:54;;;;;;;15.43;3.63;;;;;;;;;;5013121;28;20034;-59
2022/11/07 04:17:51;;;;;;;20.52;3.88;;;;;;;;;;5012903;28;20479;-61
2022/11/07 04:20:18;;;;;;;17.77;3.63;;;;;;;;;;5012838;28;20487;-59
2022/11/07 04:22:44;;;;;;;17.67;3.95;;;;;;;;;;5012654;28;20030;-59
2022/11/07 04:25:11;;;;;;;18.40;3.45;;;;;;;;;;5012762;28;20435;-60
2022/11/07 04:27:41;;;;;;;17.65;3.00;;;;;;;;;;5012630;28;20022;-60
2022/11/07 04:30:19;;;;;;;15.20;3.55;;;;;;;;;;5012733;28;20484;-60
2022/11/07 04:32:47;;;;;;;16.10;3.28;;;;;;;;;;5012532;28;20038;-60
2022/11/07 04:35:14;;;;;;;17.50;3.20;;;;;;;;;;5012696;28;20048;-59
2022/11/07 04:37:41;;;;;;;13.50;2.90;;;;;;;;;;5012338;28;20129;-59
2022/11/07 04:40:09;;;;;;;17.17;2.72;;;;;;;;;;5012786;28;20021;-60
2022/11/07 04:42:36;;;;;;;13.90;2.97;;;;;;;;;;5012462;28;20030;-60
2022/11/07 04:45:04;;;;;;;21.02;2.80;;;;;;;;;;5012654;28;20041;-59
2022/11/07 04:47:31;;;;;;;13.40;2.42;;;;;;;;;;5012671;28;20472;-58
2022/11/07 04:49:58;;;;;;;14.05;2.67;;;;;;;;;;5012705;28;20068;-60
2022/11/07 04:52:25;;;;;;;12.45;2.42;;;;;;;;;;5012471;28;20045;-60
2022/11/07 04:54:52;;;;;;;13.77;2.58;;;;;;;;;;5012340;28;20018;-60
2022/11/07 04:57:19;;;;;;;13.07;2.60;;;;;;;;;;5012254;28;20514;-60
2022/11/07 04:59:46;;;;;;;8.60;2.20;;;;;;;;;;5012428;28;20026;-58
2022/11/07 05:02:13;;;;;;;11.63;2.40;;;;;;;;;;5012222;28;20041;-60
2022/11/07 05:04:40;;;;;;;13.35;2.45;;;;;;;;;;5012240;28;20045;-59
2022/11/07 05:07:08;;;;;;;12.25;2.67;;;;;;;;;;4994939;28;20164;-58
2022/11/07 05:09:35;;;;;;;9.45;2.17;;;;;;;;;;5012308;28;20029;-60
2022/11/07 05:12:02;;;;;;;9.82;2.33;;;;;;;;;;5012166;28;20038;-60
2022/11/07 05:14:32;;;;;;;12.93;2.03;;;;;;;;;;5012033;28;20034;-59
2022/11/07 05:16:59;;;;;;;13.25;2.40;;;;;;;;;;5011914;28;20404;-58
2022/11/07 05:19:26;;;;;;;9.82;2.20;;;;;;;;;;4998180;28;20034;-60
2022/11/07 05:24:40;;;;;;;8.57;2.03;;;;;;;;;;4962017;28;20116;-60
2022/11/07 05:27:07;;;;;;;10.65;2.10;;;;;;;;;;5011918;28;20563;-62
2022/11/07 05:29:33;;;;;;;9.88;1.98;;;;;;;;;;5011954;28;20503;-59
2022/11/07 05:32:00;;;;;;;8.25;1.77;;;;;;;;;;5012094;28;20025;-60
2022/11/07 05:34:27;;;;;;;8.52;1.70;;;;;;;;;;5011648;28;20034;-60
2022/11/07 05:36:54;;;;;;;8.52;2.00;;;;;;;;;;5011987;28;20496;-58
2022/11/07 05:39:22;;;;;;;6.13;1.73;;;;;;;;;;5011711;28;20073;-60
2022/11/07 05:41:49;;;;;;;8.98;1.80;;;;;;;;;;5011889;28;20030;-60
2022/11/07 05:44:16;;;;;;;7.82;2.05;;;;;;;;;;5011664;28;20117;-60
2022/11/07 05:46:43;;;;;;;8.73;1.60;;;;;;;;;;4994266;28;20033;-60
2022/11/07 05:49:10;;;;;;;6.70;1.95;;;;;;;;;;5011932;28;20061;-59
2022/11/07 05:51:37;;;;;;;6.05;1.77;;;;;;;;;;5012013;28;20034;-59
2022/11/07 05:54:04;;;;;;;8.20;1.70;;;;;;;;;;5011810;28;20029;-59
2022/11/07 05:56:31;;;;;;;7.32;1.40;;;;;;;;;;5011658;28;20084;-59
2022/11/07 05:58:57;;;;;;;9.05;1.98;;;;;;;;;;5011734;28;20037;-60
2022/11/07 06:01:25;;;;;;;7.57;1.77;;;;;;;;;;5015914;28;20084;-60
2022/11/07 06:03:52;;;;;;;5.18;1.67;;;;;;;;;;5012486;28;20041;-60
2022/11/07 06:06:18;;;;;;;7.13;1.67;;;;;;;;;;5011317;28;20029;-59
2022/11/07 06:08:45;;;;;;;5.82;1.55;;;;;;;;;;5011546;28;20033;-58
2022/11/07 06:11:12;;;;;;;9.00;1.85;;;;;;;;;;5011623;28;20034;-57
2022/11/07 06:13:39;;;;;;;6.68;1.52;;;;;;;;;;5014065;28;20022;-58
2022/11/07 06:16:06;;;;;;;6.45;1.38;;;;;;;;;;5015368;28;20068;-61
2022/11/07 06:18:36;;;;;;;6.22;1.52;;;;;;;;;;5015238;28;20041;-60
2022/11/07 06:21:03;;;;;;;5.75;1.60;;;;;;;;;;5015092;28;20104;-59
2022/11/07 06:23:30;;;;;;;6.40;1.40;;;;;;;;;;5014791;28;20037;-60
2022/11/07 06:25:57;;;;;;;6.10;1.40;;;;;;;;;;5015093;28;20029;-59
2022/11/07 06:28:24;;;;;;;7.28;1.70;;;;;;;;;;5015090;28;20502;-59
2022/11/07 06:30:51;;;;;;;5.93;1.63;;;;;;;;;;5014979;28;20042;-61
2022/11/07 06:33:19;;;;;;;4.93;1.60;;;;;;;;;;5014860;28;20638;-59
2022/11/07 06:35:46;;;;;;;8.52;1.58;;;;;;;;;;5014856;28;20034;-57
2022/11/07 06:38:13;;;;;;;7.25;1.50;;;;;;;;;;5014682;28;20077;-59
2022/11/07 06:40:41;;;;;;;3.58;1.20;;;;;;;;;;5014970;28;20041;-61
2022/11/07 06:43:09;;;;;;;6.05;1.42;;;;;;;;;;5014502;28;20081;-58
2022/11/07 06:45:36;;;;;;;7.70;1.58;;;;;;;;;;5014562;28;20091;-61
2022/11/07 06:48:03;;;;;;;8.50;1.70;;;;;;;;;;5014678;28;20022;-61
2022/11/07 06:50:30;;;;;;;5.68;1.67;;;;;;;;;;5014626;28;20083;-59
2022/11/07 06:53:08;;;;;;;9.32;1.83;;;;;;;;;;5014383;28;20026;-59
2022/11/07 06:55:35;;;;;;;4.95;1.30;;;;;;;;;;5014507;28;20381;-59
2022/11/07 06:58:03;;;;;;;6.65;1.40;;;;;;;;;;5014434;28;20392;-59
2022/11/07 07:00:30;;;;;;;3.20;1.02;;;;;;;;;;5014426;28;20026;-56
2022/11/07 07:02:57;;;;;;;5.30;1.30;;;;;;;;;;5014547;28;20468;-58
2022/11/07 07:05:24;;;;;;;3.22;1.30;;;;;;;;;;5014300;28;20038;-61
2022/11/07 07:07:51;;;;;;;5.75;1.42;;;;;;;;;;5014288;28;20092;-58
2022/11/07 07:10:18;;;;;;;6.00;1.40;;;;;;;;;;5014194;28;20034;-59
2022/11/07 07:12:45;;;;;;;6.28;1.33;;;;;;;;;;5014192;28;20037;-60
2022/11/07 07:15:12;;;;;;;5.38;1.10;;;;;;;;;;5014296;28;20037;-60
2022/11/07 07:17:39;;;;;;;6.78;1.27;;;;;;;;;;5013889;28;20172;-57
2022/11/07 07:20:06;;;;;;;5.05;1.13;;;;;;;;;;4996517;28;20034;-62
2022/11/07 07:22:33;;;;;;;4.45;1.30;;;;;;;;;;5013802;28;20024;-58
2022/11/07 07:25:00;;;;;;;3.45;1.20;;;;;;;;;;5012931;28;20518;-60
2022/11/07 07:27:27;;;;;;;4.57;1.23;;;;;;;;;;5013889;28;20026;-60
2022/11/07 07:29:54;;;;;;;5.43;1.13;;;;;;;;;;5013898;28;20053;-59
2022/11/07 07:32:24;;;;;;;4.80;1.17;;;;;;;;;;5013681;28;20048;-60
2022/11/07 07:34:51;;;;;;;5.30;1.05;;;;;;;;;;5013721;28;20068;-58
2022/11/07 07:37:18;;;;;;;8.45;1.60;;;;;;;;;;5013478;28;20037;-59
2022/11/07 07:39:45;;;;;;;8.13;1.60;;;;;;;;;;5013530;28;20037;-58
2022/11/07 07:42:12;;;;;;;5.32;1.05;;;;;;;;;;5013634;28;20033;-60
2022/11/07 07:44:39;;;;;;;4.38;1.02;;;;;;;;;;5013635;28;20415;-60
2022/11/07 07:47:06;;;;;;;5.20;1.15;;;;;;;;;;5013605;28;20033;-63
2022/11/07 07:49:33;;;;;;;4.70;1.15;;;;;;;;;;5013435;28;20026;-60
2022/11/07 07:52:00;;;;;;;6.35;1.25;;;;;;;;;;5013532;28;20491;-59
2022/11/07 07:54:27;;;;;;;6.20;1.25;;;;;;;;;;5013235;28;20101;-60
2022/11/07 07:56:54;;;;;;;4.45;1.38;;;;;;;;;;5013354;28;20060;-60
2022/11/07 07:59:21;;;;;;;8.23;1.17;;;;;;;;;;5013425;28;20069;-59
2022/11/07 08:01:47;;;;;;;4.45;1.05;;;;;;;;;;5013108;28;20026;-60
2022/11/07 08:04:14;;;;;;;4.80;1.00;;;;;;;;;;5013056;28;20025;-61
2022/11/07 08:06:41;;;;;;;4.78;0.98;;;;;;;;;;5013230;28;20084;-59
2022/11/07 08:09:08;;;;;;;4.15;1.25;;;;;;;;;;5013068;28;20030;-57
2022/11/07 08:11:35;;;;;;;3.85;1.30;;;;;;;;;;5013089;28;20037;-60
2022/11/07 08:14:02;;;;;;;5.35;1.08;;;;;;;;;;5012719;28;20038;-59
2022/11/07 08:16:29;;;;;;;3.35;1.10;;;;;;;;;;5013000;28;20135;-61
2022/11/07 08:18:56;;;;;;;4.68;1.08;;;;;;;;;;5012854;28;20160;-61
2022/11/07 08:21:23;;;;;;;3.60;1.42;;;;;;;;;;5013010;28;20025;-60
2022/11/07 08:23:53;;;;;;;3.22;1.23;;;;;;;;;;5012630;28;20040;-59
2022/11/07 08:26:20;;;;;;;5.40;0.98;;;;;;;;;;5012717;28;20651;-60
2022/11/07 08:28:47;;;;;;;4.13;1.10;;;;;;;;;;5012435;28;20038;-59
2022/11/07 08:31:14;;;;;;;4.53;1.10;;;;;;;;;;5012696;28;20507;-59
2022/11/07 08:33:41;;;;;;;2.42;0.90;;;;;;;;;;5012786;28;20088;-61
2022/11/07 08:36:08;;;;;;;4.18;0.90;;;;;;;;;;5012213;28;20034;-60
2022/11/07 08:38:36;;;;;;;4.13;1.20;;;;;;;;;;5012341;28;20092;-59
2022/11/07 08:41:03;;;;;;;2.72;1.10;;;;;;;;;;5012372;28;20037;-58
2022/11/07 08:43:30;;;;;;;5.43;1.38;;;;;;;;;;5012461;28;20112;-61
2022/11/07 08:45:57;;;;;;;5.03;1.17;;;;;;;;;;5012539;28;20045;-58
2022/11/07 08:48:24;;;;;;;8.48;1.73;;;;;;;;;;5012433;28;20066;-57
2022/11/07 08:50:52;;;;;;;2.72;1.00;;;;;;;;;;5012594;28;20030;-58
2022/11/07 08:53:19;;;;;;;5.93;1.30;;;;;;;;;;5012229;28;20156;-58
2022/11/07 08:55:46;;;;;;;3.35;1.00;;;;;;;;;;5012411;28;20030;-58
2022/11/07 08:58:13;;;;;;;4.40;1.30;;;;;;;;;;5012345;28;20506;-59
2022/11/07 09:00:41;;;;;;;3.92;1.10;;;;;;;;;;5012449;28;20041;-59
2022/11/07 09:03:10;;;;;;;8.70;1.27;;;;;;;;;;5012228;28;20034;-61
2022/11/07 09:05:38;;;;;;;4.47;1.30;;;;;;;;;;5012104;28;20038;-59
2022/11/07 09:08:05;;;;;;;5.05;1.25;;;;;;;;;;5011929;28;20161;-59
2022/11/07 09:10:32;;;;;;;4.65;1.20;;;;;;;;;;5012131;28;20037;-60
2022/11/07 09:12:59;;;;;;;3.60;1.08;;;;;;;;;;5012099;28;20083;-58
2022/11/07 09:15:26;;;;;;;4.15;1.10;;;;;;;;;;4994381;28;20034;-59
2022/11/07 09:17:53;;;;;;;6.13;1.52;;;;;;;;;;5012189;28;20392;-57
2022/11/07 09:20:20;;;;;;;6.00;1.17;;;;;;;;;;5012205;28;20516;-59
2022/11/07 09:22:47;;;;;;;4.75;1.05;;;;;;;;;;5011709;28;20097;-60
2022/11/07 09:25:14;;;;;;;3.88;1.30;;;;;;;;;;5012050;28;20030;-61
2022/11/07 09:27:41;;;;;;;7.63;1.60;;;;;;;;;;5012014;28;20100;-58
2022/11/07 09:30:08;;;;;;;5.15;1.40;;;;;;;;;;5011924;28;20037;-59
2022/11/07 09:32:35;;;;;;;5.15;1.02;;;;;;;;;;5011705;28;20065;-59
2022/11/07 09:35:02;;;;;;;4.70;1.05;;;;;;;;;;5012045;28;20402;-58
2022/11/07 09:37:29;;;;;;;4.32;1.10;;;;;;;;;;5011461;28;20068;-59
2022/11/07 09:39:56;;;;;;;8.65;1.70;;;;;;;;;;5011948;28;20030;-59
2022/11/07 09:42:23;;;;;;;4.65;1.50;;;;;;;;;;5011911;28;20567;-60
2022/11/07 09:44:54;;;;;;;5.53;1.23;;;;;;;;;;5011736;28;20088;-59
2022/11/07 09:47:32;;;;;;;4.78;1.13;;;;;;;;;;5012398;28;20030;-59
2022/11/07 09:50:13;;;;;;;7.50;1.50;;;;;;;;;;5015638;28;20488;-60
2022/11/07 09:52:46;;;;;;;4.75;1.15;;;;;;;;;;5015760;28;20544;-59
2022/11/07 09:55:16;;;;;;;7.63;1.60;;;;;;;;;;5002431;28;20152;-59
2022/11/07 09:57:43;;;;;;;8.50;1.40;;;;;;;;;;5015643;28;20041;-60
2022/11/07 10:00:18;;;;;;;7.22;1.35;;;;;;;;;;5015316;28;20495;-61
2022/11/07 10:02:53;;;;;;;6.20;1.30;;;;;;;;;;5015575;28;20398;-58
2022/11/07 10:05:42;;;;;;;9.30;1.70;;;;;;;;;;5015389;28;20097;-60
2022/11/07 10:08:11;;;;;;;12.50;2.70;;;;;;;;;;5014505;28;20053;-60
2022/11/07 10:10:43;;;;;;;11.93;2.10;;;;;;;;;;5015357;28;20483;-59
2022/11/07 10:13:27;;;;;;;4.72;1.70;;;;;;;;;;5015335;28;20032;-60
2022/11/07 10:15:57;;;;;;;12.07;1.75;;;;;;;;;;5015303;28;20030;-60
2022/11/07 10:18:44;;;;;;;11.40;2.10;;;;;;;;;;5015282;28;20554;-59
2022/11/07 10:21:20;;;;;;;11.38;1.88;;;;;;;;;;5001840;28;20033;-60
2022/11/07 10:23:47;;;;;;;8.30;1.80;;;;;;;;;;5015054;28;20084;-59
2022/11/07 10:26:16;;;;;;;8.30;1.70;;;;;;;;;;5015230;28;20133;-59
2022/11/07 10:29:09;;;;;;;10.18;2.00;;;;;;;;;;5015080;28;20026;-59
2022/11/07 10:31:38;;;;;;;12.10;1.88;;;;;;;;;;5000300;28;20041;-57
2022/11/07 10:34:11;;;;;;;11.50;2.22;;;;;;;;;;5014826;28;20052;-58
2022/11/07 10:36:38;;;;;;;15.23;2.50;;;;;;;;;;5014963;28;20057;-61
2022/11/07 10:39:15;;;;;;;11.70;2.17;;;;;;;;;;5014665;28;20527;-59
2022/11/07 10:41:43;;;;;;;15.70;1.90;;;;;;;;;;5002433;28;20123;-59
2022/11/07 10:44:20;;;;;;;15.68;2.65;;;;;;;;;;5014870;28;20033;-59
2022/11/07 10:46:47;;;;;;;9.68;2.17;;;;;;;;;;5002206;28;20057;-59
2022/11/07 10:49:18;;;;;;;16.95;2.97;;;;;;;;;;5014713;28;20034;-59
2022/11/07 10:51:45;;;;;;;18.67;3.00;;;;;;;;;;5001105;28;20081;-55
2022/11/07 10:54:27;;;;;;;21.15;2.70;;;;;;;;;;5013313;28;20080;-58
2022/11/07 10:57:06;;;;;;;10.98;2.33;;;;;;;;;;5014245;28;20122;-59
2022/11/07 10:59:34;;;;;;;31.98;3.42;;;;;;;;;;5013520;28;20125;-59
2022/11/07 11:02:01;;;;;;;18.92;3.17;;;;;;;;;;4996443;28;20062;-61
2022/11/07 11:04:30;;;;;;;23.55;2.88;;;;;;;;;;5014478;28;20032;-62
2022/11/07 11:07:04;;;;;;;24.05;2.80;;;;;;;;;;5003425;28;20482;-62
2022/11/07 11:09:35;;;;;;;19.83;2.85;;;;;;;;;;5012583;28;20543;-62
2022/11/07 11:12:13;;;;;;;28.63;3.67;;;;;;;;;;5008107;28;20034;-62
2022/11/07 11:14:40;;;;;;;26.02;3.97;;;;;;;;;;5011389;28;20107;-61
2022/11/07 11:17:20;;;;;;;28.90;3.60;;;;;;;;;;5012160;28;20080;-61
2022/11/07 11:19:52;;;;;;;43.08;5.10;;;;;;;;;;5012389;28;20384;-60
2022/11/07 11:22:21;;;;;;;34.80;6.00;;;;;;;;;;5012286;28;20503;-58
2022/11/07 11:24:58;;;;;;;47.58;4.93;;;;;;;;;;4995479;28;20421;-58
2022/11/07 11:27:26;;;;;;;33.97;5.03;;;;;;;;;;5012974;28;20487;-54
2022/11/07 11:29:56;;;;;;;39.95;5.38;;;;;;;;;;5013785;28;20096;-58
2022/11/07 11:32:25;;;;;;;48.47;5.43;;;;;;;;;;5013741;28;20100;-56
2022/11/07 11:34:58;;;;;;;48.15;5.97;;;;;;;;;;5013149;28;20026;-56
2022/11/07 11:37:29;;;;;;;53.13;6.07;;;;;;;;;;5012692;28;20120;-57
2022/11/07 11:40:03;;;;;;;40.08;4.93;;;;;;;;;;5012827;28;20033;-52
2022/11/07 11:42:48;;;;;;;62.92;6.93;;;;;;;;;;5013067;28;20038;-53
2022/11/07 11:45:16;;;;;;;49.75;5.97;;;;;;;;;;5012751;28;20052;-55
2022/11/07 11:47:54;;;;;;;49.35;6.40;;;;;;;;;;5012683;28;20815;-56
2022/11/07 11:50:29;;;;;;;52.42;6.07;;;;;;;;;;5013321;28;20038;-57
2022/11/07 11:52:56;;;;;;;37.03;5.07;;;;;;;;;;5013397;28;20480;-59
2022/11/07 11:55:23;;;;;;;32.58;4.28;;;;;;;;;;5012489;28;20105;-61
2022/11/07 11:58:05;;;;;;;32.13;4.20;;;;;;;;;;5012793;28;20038;-60
2022/11/07 12:00:36;;;;;;;30.45;4.65;;;;;;;;;;5013089;28;20496;-59
2022/11/07 12:03:18;;;;;;;44.10;4.72;;;;;;;;;;5013297;28;20108;-60
2022/11/07 12:05:48;;;;;;;51.85;6.00;;;;;;;;;;5012005;28;20041;-55
2022/11/07 12:08:33;;;;;;;54.10;5.65;;;;;;;;;;5012933;28;20108;-58
2022/11/07 12:11:03;;;;;;;48.03;5.20;;;;;;;;;;5012057;28;20033;-52
2022/11/07 12:13:39;;;;;;;48.63;5.38;;;;;;;;;;5012244;28;20116;-53
2022/11/07 12:16:14;;;;;;;40.92;4.35;;;;;;;;;;5012957;28;20076;-57
2022/11/07 12:18:53;;;;;;;45.50;5.07;;;;;;;;;;5012860;28;20037;-58
2022/11/07 12:21:23;;;;;;;43.25;4.70;;;;;;;;;;5011697;28;20113;-55
2022/11/07 12:24:06;;;;;;;42.00;4.90;;;;;;;;;;5011583;28;20488;-52
2022/11/07 12:26:47;;;;;;;34.53;4.55;;;;;;;;;;5012324;28;20046;-50
2022/11/07 12:29:32;;;;;;;41.22;4.65;;;;;;;;;;5012393;28;20022;-50
2022/11/07 12:32:08;;;;;;;40.25;4.00;;;;;;;;;;5011676;28;20040;-55
2022/11/07 12:34:44;;;;;;;35.63;4.13;;;;;;;;;;5011948;28;20030;-58
2022/11/07 12:37:29;;;;;;;34.40;4.35;;;;;;;;;;5012535;28;20487;-55
2022/11/07 12:40:03;;;;;;;37.92;4.50;;;;;;;;;;5012364;28;20073;-58
2022/11/07 12:42:30;;;;;;;37.88;4.88;;;;;;;;;;5011603;28;20145;-58
2022/11/07 12:45:11;;;;;;;39.85;5.18;;;;;;;;;;5011624;28;20084;-55
2022/11/07 12:47:38;;;;;;;44.50;4.95;;;;;;;;;;5012451;28;20126;-58
2022/11/07 12:50:12;;;;;;;38.97;5.38;;;;;;;;;;5012449;28;20037;-59
2022/11/07 12:52:49;;;;;;;48.90;5.97;;;;;;;;;;5011362;28;20045;-56
2022/11/07 12:55:24;;;;;;;44.38;5.15;;;;;;;;;;5011528;28;20088;-57
2022/11/07 12:57:52;;;;;;;41.75;5.78;;;;;;;;;;5012240;28;20040;-57
2022/11/07 13:00:24;;;;;;;39.78;4.93;;;;;;;;;;5012034;28;20361;-53
2022/11/07 13:03:09;;;;;;;43.35;5.55;;;;;;;;;;5011327;28;20037;-55
2022/11/07 13:05:39;;;;;;;39.28;5.38;;;;;;;;;;5010866;28;20153;-54
2022/11/07 13:08:17;;;;;;;38.13;5.53;;;;;;;;;;5011981;28;20030;-55
2022/11/07 13:10:52;;;;;;;41.65;5.22;;;;;;;;;;5012032;28;20026;-54
2022/11/07 13:13:21;;;;;;;47.58;6.13;;;;;;;;;;5010245;28;20030;-52
2022/11/07 13:15:48;;;;;;;45.58;5.28;;;;;;;;;;4994458;28;20046;-58
2022/11/07 13:18:25;;;;;;;53.03;5.95;;;;;;;;;;5011919;28;20040;-55
2022/11/07 13:20:59;;;;;;;51.20;6.28;;;;;;;;;;5012108;28;20520;-58
2022/11/07 13:23:27;;;;;;;56.97;5.05;;;;;;;;;;5010178;28;20029;-54
2022/11/07 13:26:04;;;;;;;39.13;5.78;;;;;;;;;;5010744;28;20040;-58
2022/11/07 13:28:39;;;;;;;49.30;5.97;;;;;;;;;;4993978;28;20121;-58
2022/11/07 13:31:07;;;;;;;53.05;6.00;;;;;;;;;;5007669;28;20053;-58
2022/11/07 13:33:35;;;;;;;49.92;5.70;;;;;;;;;;5009982;28;20061;-58
2022/11/07 13:36:25;;;;;;;48.90;5.68;;;;;;;;;;5010340;28;20484;-60
2022/11/07 13:38:54;;;;;;;42.50;5.25;;;;;;;;;;4993333;28;20054;-58
2022/11/07 13:41:22;;;;;;;46.63;5.82;;;;;;;;;;5011196;28;20026;-58
2022/11/07 13:43:55;;;;;;;47.75;6.80;;;;;;;;;;5009973;28;20076;-59
2022/11/07 13:46:29;;;;;;;50.75;6.30;;;;;;;;;;5010322;28;20503;-60
2022/11/07 13:49:06;;;;;;;60.80;6.03;;;;;;;;;;5010939;28;20014;-57
2022/11/07 13:51:36;;;;;;;38.83;6.25;;;;;;;;;;5011124;28;20037;-59
2022/11/07 13:54:15;;;;;;;59.13;6.25;;;;;;;;;;5010107;28;20392;-59
2022/11/07 13:56:53;;;;;;;42.45;6.00;;;;;;;;;;5010157;28;20380;-57
2022/11/07 13:59:29;;;;;;;49.90;5.93;;;;;;;;;;5008384;28;20518;-55
2022/11/07 14:01:57;;;;;;;45.95;5.47;;;;;;;;;;5011532;28;20021;-57
2022/11/07 14:04:26;;;;;;;42.45;6.28;;;;;;;;;;5011420;28;20030;-59
2022/11/07 14:06:56;;;;;;;60.47;7.68;;;;;;;;;;5011466;28;20022;-61
2022/11/07 14:09:23;;;;;;;75.50;8.80;;;;;;;;;;5011487;28;20030;-60
2022/11/07 14:11:52;;;;;;;68.07;7.93;;;;;;;;;;5011493;28;20049;-60
2022/11/07 14:14:22;;;;;;;69.03;6.93;;;;;;;;;;5011148;28;20030;-60
2022/11/07 14:16:49;;;;;;;70.00;7.70;;;;;;;;;;5011278;28;20498;-59
2022/11/07 14:19:18;;;;;;;66.85;8.55;;;;;;;;;;5010710;28;20443;-59
2022/11/07 14:21:46;;;;;;;88.40;9.82;;;;;;;;;;5010807;28;20030;-59
2022/11/07 14:24:19;;;;;;;75.80;9.23;;;;;;;;;;5011061;28;20025;-60
2022/11/07 14:26:57;;;;;;;74.75;9.02;;;;;;;;;;5010842;28;20041;-59
2022/11/07 14:29:23;;;;;;;72.95;8.10;;;;;;;;;;5010675;28;20042;-60
2022/11/07 14:31:50;;;;;;;65.47;8.48;;;;;;;;;;5010658;28;20026;-60
2022/11/07 14:34:19;;;;;;;70.90;9.07;;;;;;;;;;5012478;28;20072;-61
2022/11/07 14:37:06;;;;;;;62.85;8.13;;;;;;;;;;5014271;28;20064;-60
2022/11/07 14:39:34;;;;;;;66.15;8.57;;;;;;;;;;5014024;28;20148;-60
2022/11/07 14:42:02;;;;;;;59.40;7.07;;;;;;;;;;5013552;28;20117;-60
2022/11/07 14:44:37;;;;;;;59.17;7.85;;;;;;;;;;5014078;28;20038;-60
2022/11/07 14:47:07;;;;;;;62.63;8.45;;;;;;;;;;5014144;28;20033;-60
2022/11/07 14:49:39;;;;;;;50.15;7.45;;;;;;;;;;5014415;28;20030;-60
2022/11/07 14:52:05;;;;;;;;;;;;;;;;;;5014994;28;20571;-60
2022/11/07 14:54:37;;;;;;;67.00;8.15;;;;;;;;;;5010812;28;20422;-57
2022/11/07 14:57:05;;;;;;;65.10;8.63;;;;;;;;;;5014138;28;20778;-55
2022/11/07 14:59:34;;;;;;;59.17;8.45;;;;;;;;;;5013490;28;20092;-56
2022/11/07 15:02:13;;;;;;;61.20;8.60;;;;;;;;;;5013233;28;20120;-57
2022/11/07 15:04:45;;;;;;;52.53;7.68;;;;;;;;;;5014257;28;20042;-54
2022/11/07 15:07:12;;;;;;;52.00;9.07;;;;;;;;;;5013835;28;20038;-57
2022/11/07 15:09:39;;;;;;;58.60;9.35;;;;;;;;;;4999471;28;20037;-55
2022/11/07 15:12:14;;;;;;;67.53;9.05;;;;;;;;;;5013462;28;20025;-58